createdAt,value
2022-08-31T00:00:15.363Z,99413.97
2022-08-31T00:03:00.484Z,99413.13
2022-08-31T00:05:28.261Z,99406.72
2022-08-31T00:07:55.587Z,99408.41
2022-08-31T00:10:31.809Z,99409.88
2022-08-31T00:13:00.363Z,99415.72
2022-08-31T00:15:29.997Z,99423.41
2022-08-31T00:17:56.481Z,99424.97
2022-08-31T00:20:33.588Z,99419.91
2022-08-31T00:23:05.680Z,99419.78
2022-08-31T00:25:33.839Z,99419.84
2022-08-31T00:28:00.478Z,99424.19
2022-08-31T00:30:27.305Z,99417.50
2022-08-31T00:32:53.916Z,99415.28
2022-08-31T00:35:24.264Z,99422.13
2022-08-31T00:37:50.803Z,99425.13
2022-08-31T00:40:17.754Z,99434.06
2022-08-31T00:42:44.362Z,99432.16
2022-08-31T00:45:11.247Z,99430.63
2022-08-31T00:47:38.104Z,99434.75
2022-08-31T00:50:07.890Z,99431.72
2022-08-31T00:52:40.035Z,99429.84
2022-08-31T00:55:29.504Z,99437.06
2022-08-31T00:57:58.080Z,99433.22
2022-08-31T01:00:27.794Z,99433.13
2022-08-31T01:02:55.635Z,99437.66
2022-08-31T01:05:22.307Z,99433.13
2022-08-31T01:07:50.024Z,99438.25
2022-08-31T01:10:20.414Z,99436.28
2022-08-31T01:12:50.791Z,99438.84
2022-08-31T01:15:17.769Z,99428.47
2022-08-31T01:17:48.205Z,99438.78
2022-08-31T01:20:27.729Z,99434.44
2022-08-31T01:22:59.394Z,99443.59
2022-08-31T01:25:26.720Z,99434.03
2022-08-31T01:28:04.713Z,99434.19
2022-08-31T01:30:31.720Z,99440.69
2022-08-31T01:32:58.584Z,99431.13
2022-08-31T01:35:25.271Z,99445.19
2022-08-31T01:37:52.922Z,99432.09
2022-08-31T01:40:19.666Z,99434.94
2022-08-31T01:42:46.533Z,99438.59
2022-08-31T01:45:13.198Z,99438.22
2022-08-31T01:47:40.819Z,99443.00
2022-08-31T01:50:08.251Z,99441.31
2022-08-31T01:52:37.732Z,99448.66
2022-08-31T01:55:06.069Z,99446.47
2022-08-31T01:57:34.191Z,99446.91
2022-08-31T02:00:05.894Z,99441.16
2022-08-31T02:02:32.558Z,99441.16
2022-08-31T02:04:59.202Z,99439.63
2022-08-31T02:07:26.050Z,99431.22
2022-08-31T02:09:54.190Z,99433.88
2022-08-31T02:12:20.752Z,99441.03
2022-08-31T02:14:47.287Z,99431.22
2022-08-31T02:17:13.844Z,99432.19
2022-08-31T02:19:40.614Z,99432.47
2022-08-31T02:22:07.549Z,99425.59
2022-08-31T02:24:34.246Z,99430.56
2022-08-31T02:27:00.865Z,99431.41
2022-08-31T02:29:27.587Z,99434.47
2022-08-31T02:31:54.124Z,99431.25
2022-08-31T02:34:20.793Z,99428.59
2022-08-31T02:36:47.327Z,99423.84
2022-08-31T02:39:14.894Z,99421.16
2022-08-31T02:41:41.974Z,99415.69
2022-08-31T02:44:08.626Z,99423.84
2022-08-31T02:46:35.422Z,99421.34
2022-08-31T02:49:02.535Z,99421.34
2022-08-31T02:51:29.422Z,99426.69
2022-08-31T02:53:56.161Z,99420.22
2022-08-31T02:56:23.905Z,99417.69
2022-08-31T02:58:55.258Z,99415.56
2022-08-31T03:01:26.478Z,99419.94
2022-08-31T03:03:53.227Z,99420.19
2022-08-31T03:06:20.293Z,99414.31
2022-08-31T03:08:47.582Z,99412.91
2022-08-31T03:11:14.303Z,99407.56
2022-08-31T03:13:41.725Z,99404.19
2022-08-31T03:16:09.276Z,99407.28
2022-08-31T03:18:35.906Z,99403.91
2022-08-31T03:21:02.560Z,99406.44
2022-08-31T03:23:29.507Z,99396.88
2022-08-31T03:25:56.082Z,99400.00
2022-08-31T03:28:22.688Z,99399.72
2022-08-31T03:30:49.623Z,99402.81
2022-08-31T03:33:16.563Z,99398.31
2022-08-31T03:35:44.820Z,99395.91
2022-08-31T03:38:13.004Z,99404.31
2022-08-31T03:40:44.075Z,99413.59
2022-08-31T03:43:11.827Z,99411.78
2022-08-31T03:45:40.543Z,99412.63
2022-08-31T03:48:12.240Z,99407.28
2022-08-31T03:50:40.640Z,99404.63
2022-08-31T03:53:08.492Z,99412.75
2022-08-31T03:55:38.345Z,99410.09
2022-08-31T03:58:06.003Z,99407.16
2022-08-31T04:00:34.034Z,99420.31
2022-08-31T04:03:01.633Z,99415.69
2022-08-31T04:05:33.988Z,99408.53
2022-08-31T04:08:00.574Z,99405.16
2022-08-31T04:10:27.081Z,99419.34
2022-08-31T04:12:53.695Z,99425.25
2022-08-31T04:15:22.228Z,99423.31
2022-08-31T04:17:49.058Z,99423.31
2022-08-31T04:20:18.727Z,99420.50
2022-08-31T04:22:53.125Z,99420.31
2022-08-31T04:25:21.572Z,99426.69
2022-08-31T04:27:50.391Z,99429.34
2022-08-31T04:30:17.994Z,99420.31
2022-08-31T04:32:44.530Z,99427.53
2022-08-31T04:35:11.119Z,99431.88
2022-08-31T04:37:37.645Z,99432.88
2022-08-31T04:40:18.122Z,99442.38
2022-08-31T04:42:47.333Z,99439.03
2022-08-31T04:45:15.264Z,99437.34
2022-08-31T04:47:42.950Z,99439.31
2022-08-31T04:50:11.288Z,99440.28
2022-08-31T04:52:37.985Z,99438.47
2022-08-31T04:55:05.525Z,99439.31
2022-08-31T04:57:35.556Z,99443.25
2022-08-31T05:00:04.966Z,99435.66
2022-08-31T05:02:32.969Z,99441.84
2022-08-31T05:05:00.501Z,99448.88
2022-08-31T05:07:27.122Z,99442.97
2022-08-31T05:09:54.090Z,99447.72
2022-08-31T05:12:20.676Z,99454.47
2022-08-31T05:14:47.901Z,99451.50
2022-08-31T05:17:15.999Z,99458.25
2022-08-31T05:19:43.901Z,99457.25
2022-08-31T05:22:11.374Z,99464.00
2022-08-31T05:24:38.987Z,99457.97
2022-08-31T05:27:05.930Z,99463.56
2022-08-31T05:29:32.546Z,99463.13
2022-08-31T05:31:59.090Z,99455.53
2022-08-31T05:34:26.885Z,99456.63
2022-08-31T05:36:55.207Z,99451.28
2022-08-31T05:39:22.110Z,99455.19
2022-08-31T05:41:48.750Z,99464.63
2022-08-31T05:44:16.926Z,99477.94
2022-08-31T05:46:43.725Z,99480.16
2022-08-31T05:49:11.652Z,99477.88
2022-08-31T05:51:39.139Z,99468.34
2022-08-31T05:54:07.568Z,99471.41
2022-08-31T05:56:34.913Z,99477.59
2022-08-31T05:59:01.849Z,99487.16
2022-08-31T06:01:35.069Z,99490.50
2022-08-31T06:04:02.469Z,99489.06
2022-08-31T06:06:29.686Z,99483.38
2022-08-31T06:08:57.986Z,99480.44
2022-08-31T06:11:28.402Z,99484.09
2022-08-31T06:13:58.143Z,99484.31
2022-08-31T06:16:26.323Z,99494.19
2022-08-31T06:18:55.680Z,99501.06
2022-08-31T06:21:29.048Z,99498.78
2022-08-31T06:23:58.041Z,99501.19
2022-08-31T06:26:27.069Z,99492.88
2022-08-31T06:28:57.113Z,99504.81
2022-08-31T06:31:37.434Z,99510.88
2022-08-31T06:34:07.089Z,99505.75
2022-08-31T06:36:34.280Z,99509.72
2022-08-31T06:39:02.383Z,99511.34
2022-08-31T06:41:35.806Z,99516.25
2022-08-31T06:44:07.898Z,99513.56
2022-08-31T06:46:37.209Z,99518.06
2022-08-31T06:49:04.999Z,99512.81
2022-08-31T06:51:37.940Z,99516.63
2022-08-31T06:54:27.516Z,99519.69
2022-08-31T06:56:53.943Z,99528.78
2022-08-31T06:59:20.544Z,99524.97
2022-08-31T07:01:47.271Z,99520.75
2022-08-31T07:04:14.242Z,99515.53
2022-08-31T07:06:43.175Z,99521.84
2022-08-31T07:09:12.941Z,99525.41
2022-08-31T07:11:45.297Z,99529.25
2022-08-31T07:14:14.790Z,99534.63
2022-08-31T07:16:42.215Z,99537.19
2022-08-31T07:19:09.720Z,99536.66
2022-08-31T07:21:47.347Z,99536.59
2022-08-31T07:24:18.036Z,99547.00
2022-08-31T07:26:49.956Z,99553.19
2022-08-31T07:29:18.622Z,99546.16
2022-08-31T07:31:48.848Z,99549.75
2022-08-31T07:34:19.280Z,99548.25
2022-08-31T07:37:05.936Z,99544.56
2022-08-31T07:39:52.170Z,99546.25
2022-08-31T07:42:28.769Z,99541.91
2022-08-31T07:44:57.498Z,99551.31
2022-08-31T07:47:28.441Z,99555.34
2022-08-31T07:49:56.846Z,99546.03
2022-08-31T07:52:30.801Z,99550.44
2022-08-31T07:55:07.894Z,99554.06
2022-08-31T07:57:40.565Z,99556.13
2022-08-31T08:00:10.485Z,99559.09
2022-08-31T08:02:39.047Z,99559.66
2022-08-31T08:05:11.945Z,99560.25
2022-08-31T08:07:40.528Z,99563.31
2022-08-31T08:10:14.139Z,99556.22
2022-08-31T08:12:47.267Z,99564.75
2022-08-31T08:15:15.442Z,99563.00
2022-08-31T08:17:42.342Z,99566.34
2022-08-31T08:20:13.476Z,99563.81
2022-08-31T08:22:53.996Z,99570.84
2022-08-31T08:25:26.059Z,99565.63
2022-08-31T08:27:54.518Z,99575.09
2022-08-31T08:30:22.660Z,99567.00
2022-08-31T08:32:49.334Z,99572.06
2022-08-31T08:35:16.690Z,99568.13
2022-08-31T08:37:58.344Z,99572.44
2022-08-31T08:40:42.644Z,99573.56
2022-08-31T08:43:16.209Z,99573.94
2022-08-31T08:45:45.851Z,99572.28
2022-08-31T08:48:17.253Z,99575.31
2022-08-31T08:50:44.280Z,99576.31
2022-08-31T08:53:15.279Z,99577.00
2022-08-31T08:55:42.362Z,99579.84
2022-08-31T08:58:10.582Z,99580.72
2022-08-31T09:00:46.446Z,99570.59
2022-08-31T09:03:54.631Z,99573.84
2022-08-31T09:06:32.191Z,99580.16
2022-08-31T09:09:32.736Z,99569.47
2022-08-31T09:12:24.042Z,99567.81
2022-08-31T09:15:16.347Z,99568.84
2022-08-31T09:18:05.231Z,99577.56
2022-08-31T09:20:33.899Z,99576.31
2022-08-31T09:23:02.248Z,99587.69
2022-08-31T09:25:34.728Z,99577.94
2022-08-31T09:28:15.101Z,99580.31
2022-08-31T09:30:44.696Z,99579.00
2022-08-31T09:33:23.988Z,99578.16
2022-08-31T09:35:58.568Z,99581.69
2022-08-31T09:38:39.527Z,99573.47
2022-08-31T09:41:30.956Z,99579.19
2022-08-31T09:44:22.274Z,99577.28
2022-08-31T09:46:51.457Z,99587.06
2022-08-31T09:49:26.924Z,99579.72
2022-08-31T09:52:13.454Z,99585.59
2022-08-31T09:54:58.694Z,99588.44
2022-08-31T09:58:11.220Z,99588.44
2022-08-31T10:00:44.855Z,99597.31
2022-08-31T10:03:20.776Z,99586.91
2022-08-31T10:05:51.760Z,99591.03
2022-08-31T10:08:57.957Z,99597.03
2022-08-31T10:11:29.407Z,99585.63
2022-08-31T10:14:22.931Z,99595.31
2022-08-31T10:17:00.438Z,99590.97
2022-08-31T10:19:56.633Z,99603.84
2022-08-31T10:22:31.469Z,99600.56
2022-08-31T10:25:11.997Z,99601.81
2022-08-31T10:27:44.935Z,99600.97
2022-08-31T10:30:22.986Z,99599.75
2022-08-31T10:33:07.801Z,99599.75
2022-08-31T10:35:43.925Z,99588.25
2022-08-31T10:38:24.176Z,99594.13
2022-08-31T10:40:52.789Z,99598.13
2022-08-31T10:43:29.186Z,99596.81
2022-08-31T10:45:59.776Z,99600.09
2022-08-31T10:48:27.465Z,99599.88
2022-08-31T10:51:20.388Z,99603.94
2022-08-31T10:53:52.228Z,99594.38
2022-08-31T10:56:41.659Z,99598.91
2022-08-31T10:59:24.683Z,99594.59
2022-08-31T11:02:12.811Z,99592.41
2022-08-31T11:05:06.610Z,99592.47
2022-08-31T11:07:55.398Z,99591.09
2022-08-31T11:10:37.372Z,99596.81
2022-08-31T11:13:14.562Z,99589.84
2022-08-31T11:15:59.770Z,99597.72
2022-08-31T11:18:26.294Z,99590.88
2022-08-31T11:21:11.066Z,99593.06
2022-08-31T11:24:00.363Z,99580.88
2022-08-31T11:27:01.192Z,99577.25
2022-08-31T11:29:43.901Z,99577.94
2022-08-31T11:32:17.812Z,99569.75
2022-08-31T11:34:53.466Z,99570.97
2022-08-31T11:37:50.850Z,99571.03
2022-08-31T11:40:41.705Z,99558.25
2022-08-31T11:43:31.520Z,99556.59
2022-08-31T11:46:24.035Z,99564.81
2022-08-31T11:48:56.107Z,99556.59
2022-08-31T11:51:40.668Z,99563.00
2022-08-31T11:54:13.702Z,99558.75
2022-08-31T11:56:44.266Z,99556.59
2022-08-31T11:59:34.006Z,99558.75
2022-08-31T12:02:19.543Z,99553.91
2022-08-31T12:04:47.434Z,99554.72
2022-08-31T12:07:24.775Z,99554.03
2022-08-31T12:10:15.882Z,99554.88
2022-08-31T12:12:51.458Z,99556.88
2022-08-31T12:15:39.613Z,99561.41
2022-08-31T12:18:08.822Z,99547.16
2022-08-31T12:21:24.888Z,99556.56
2022-08-31T12:24:06.451Z,99554.81
2022-08-31T12:26:58.289Z,99544.91
2022-08-31T12:29:26.961Z,99546.19
2022-08-31T12:32:12.203Z,99546.53
2022-08-31T12:34:49.580Z,99542.25
2022-08-31T12:37:36.290Z,99537.41
2022-08-31T12:40:06.143Z,99539.09
2022-08-31T12:42:36.687Z,99534.31
2022-08-31T12:45:04.925Z,99526.50
2022-08-31T12:47:43.485Z,99525.53
2022-08-31T12:50:17.851Z,99535.53
2022-08-31T12:52:55.573Z,99525.84
2022-08-31T12:55:31.130Z,99526.50
2022-08-31T12:58:21.530Z,99529.50
2022-08-31T13:00:48.432Z,99528.16
2022-08-31T13:03:22.758Z,99533.56
2022-08-31T13:06:08.370Z,99520.63
2022-08-31T13:08:47.476Z,99520.38
2022-08-31T13:11:34.949Z,99522.63
2022-08-31T13:14:20.925Z,99510.19
2022-08-31T13:16:50.725Z,99505.09
2022-08-31T13:19:30.240Z,99509.56
2022-08-31T13:22:09.543Z,99501.00
2022-08-31T13:24:37.785Z,99505.66
2022-08-31T13:27:05.816Z,99494.78
2022-08-31T13:29:41.097Z,99480.81
2022-08-31T13:32:09.113Z,99483.63
2022-08-31T13:34:39.377Z,99488.91
2022-08-31T13:37:12.887Z,99481.66
2022-08-31T13:39:46.083Z,99474.47
2022-08-31T13:42:22.432Z,99468.66
2022-08-31T13:44:56.338Z,99472.03
2022-08-31T13:47:30.236Z,99460.34
2022-08-31T13:50:13.199Z,99452.09
2022-08-31T13:53:04.197Z,99459.66
2022-08-31T13:55:43.304Z,99465.72
2022-08-31T13:58:31.033Z,99463.31
2022-08-31T14:01:19.430Z,99460.56
2022-08-31T14:03:59.258Z,99461.72
2022-08-31T14:06:29.897Z,99447.91
2022-08-31T14:09:07.733Z,99450.91
2022-08-31T14:11:35.657Z,99447.47
2022-08-31T14:14:08.370Z,99454.53
2022-08-31T14:16:38.970Z,99458.38
2022-08-31T14:19:11.040Z,99452.31
2022-08-31T14:21:43.503Z,99451.22
2022-08-31T14:24:12.351Z,99455.56
2022-08-31T14:26:44.103Z,99444.03
2022-08-31T14:29:16.254Z,99449.09
2022-08-31T14:31:49.102Z,99441.44
2022-08-31T14:34:22.225Z,99438.88
2022-08-31T14:37:10.890Z,99442.28
2022-08-31T14:39:47.958Z,99438.25
2022-08-31T14:42:28.972Z,99433.94
2022-08-31T14:45:03.212Z,99428.47
2022-08-31T14:47:36.146Z,99428.47
2022-08-31T14:50:07.125Z,99425.69
2022-08-31T14:52:39.033Z,99428.66
2022-08-31T14:55:11.148Z,99426.53
2022-08-31T14:57:45.704Z,99426.06
2022-08-31T15:00:22.986Z,99416.94
2022-08-31T15:02:53.554Z,99413.28
2022-08-31T15:05:23.355Z,99415.56
2022-08-31T15:07:52.966Z,99412.66
2022-08-31T15:10:21.740Z,99404.63
2022-08-31T15:12:48.850Z,99408.13
2022-08-31T15:15:20.407Z,99413.69
2022-08-31T15:17:51.709Z,99408.81
2022-08-31T15:20:20.082Z,99414.59
2022-08-31T15:22:48.265Z,99404.63
2022-08-31T15:25:16.213Z,99408.75
2022-08-31T15:27:46.589Z,99406.00
2022-08-31T15:30:19.012Z,99409.41
2022-08-31T15:32:48.076Z,99408.91
2022-08-31T15:35:23.478Z,99399.44
2022-08-31T15:37:58.841Z,99400.09
2022-08-31T15:40:29.047Z,99401.63
2022-08-31T15:42:56.273Z,99405.09
2022-08-31T15:45:23.585Z,99409.09
2022-08-31T15:48:08.647Z,99408.28
2022-08-31T15:50:36.002Z,99404.78
2022-08-31T15:53:09.553Z,99404.56
2022-08-31T15:55:40.592Z,99403.28
2022-08-31T15:58:09.313Z,99399.00
2022-08-31T16:00:36.707Z,99402.88
2022-08-31T16:03:03.764Z,99386.06
2022-08-31T16:05:35.763Z,99390.34
2022-08-31T16:08:03.188Z,99383.38
2022-08-31T16:10:31.082Z,99385.88
2022-08-31T16:12:58.183Z,99390.63
2022-08-31T16:15:25.447Z,99382.63
2022-08-31T16:17:57.656Z,99375.19
2022-08-31T16:20:27.317Z,99381.25
2022-08-31T16:22:54.047Z,99383.56
2022-08-31T16:25:20.723Z,99382.63
2022-08-31T16:27:47.360Z,99368.69
2022-08-31T16:30:14.543Z,99366.41
2022-08-31T16:32:41.120Z,99377.47
2022-08-31T16:35:08.258Z,99369.09
2022-08-31T16:37:34.904Z,99365.16
2022-08-31T16:40:01.566Z,99369.41
2022-08-31T16:42:28.383Z,99363.69
2022-08-31T16:44:59.719Z,99357.06
2022-08-31T16:47:29.088Z,99363.06
2022-08-31T16:49:55.799Z,99366.31
2022-08-31T16:52:26.777Z,99365.63
2022-08-31T16:54:56.920Z,99373.19
2022-08-31T16:57:27.272Z,99374.34
2022-08-31T16:59:56.440Z,99371.09
2022-08-31T17:02:24.267Z,99384.31
2022-08-31T17:04:53.464Z,99376.22
2022-08-31T17:07:23.440Z,99380.16
2022-08-31T17:09:49.918Z,99383.78
2022-08-31T17:12:21.510Z,99382.09
2022-08-31T17:14:52.550Z,99386.22
2022-08-31T17:17:22.523Z,99390.25
2022-08-31T17:19:49.755Z,99396.31
2022-08-31T17:22:25.613Z,99393.97
2022-08-31T17:24:57.711Z,99391.00
2022-08-31T17:27:26.239Z,99390.28
2022-08-31T17:29:56.198Z,99389.97
2022-08-31T17:32:25.855Z,99398.81
2022-08-31T17:34:54.512Z,99403.94
2022-08-31T17:37:28.357Z,99404.13
2022-08-31T17:39:55.891Z,99400.97
2022-08-31T17:42:26.791Z,99411.28
2022-08-31T17:44:55.272Z,99414.72
2022-08-31T17:47:24.266Z,99408.91
2022-08-31T17:49:51.609Z,99408.47
2022-08-31T17:52:20.604Z,99408.72
2022-08-31T17:54:48.526Z,99412.75
2022-08-31T17:57:16.504Z,99415.50
2022-08-31T17:59:46.561Z,99414.38
2022-08-31T18:02:20.053Z,99420.81
2022-08-31T18:04:46.670Z,99421.06
2022-08-31T18:07:13.486Z,99423.97
2022-08-31T18:09:44.193Z,99423.91
2022-08-31T18:12:11.282Z,99423.28
2022-08-31T18:14:38.880Z,99425.38
2022-08-31T18:17:08.646Z,99433.59
2022-08-31T18:19:35.329Z,99435.66
2022-08-31T18:22:02.478Z,99439.38
2022-08-31T18:24:31.376Z,99431.53
2022-08-31T18:26:58.852Z,99430.53
2022-08-31T18:29:26.708Z,99443.66
2022-08-31T18:31:54.271Z,99441.00
2022-08-31T18:34:23.047Z,99443.53
2022-08-31T18:36:51.691Z,99447.75
2022-08-31T18:39:40.748Z,99443.72
2022-08-31T18:42:27.323Z,99452.81
2022-08-31T18:45:12.662Z,99458.50
2022-08-31T18:47:39.249Z,99462.72
2022-08-31T18:50:06.203Z,99455.81
2022-08-31T18:52:32.790Z,99460.00
2022-08-31T18:54:59.869Z,99457.50
2022-08-31T18:57:27.676Z,99465.72
2022-08-31T18:59:55.201Z,99461.00
2022-08-31T19:02:23.130Z,99461.69
2022-08-31T19:04:51.118Z,99467.72
2022-08-31T19:07:19.140Z,99472.22
2022-08-31T19:09:46.087Z,99473.88
2022-08-31T19:12:18.335Z,99474.22
2022-08-31T19:14:51.068Z,99474.88
2022-08-31T19:17:21.696Z,99472.84
2022-08-31T19:19:49.352Z,99473.34
2022-08-31T19:22:18.421Z,99471.97
2022-08-31T19:24:45.122Z,99473.31
2022-08-31T19:27:13.965Z,99475.78
2022-08-31T19:29:41.730Z,99475.44
2022-08-31T19:32:10.175Z,99477.38
2022-08-31T19:34:40.416Z,99478.41
2022-08-31T19:37:07.958Z,99478.22
2022-08-31T19:39:37.424Z,99478.38
2022-08-31T19:42:07.836Z,99486.06
2022-08-31T19:47:25.633Z,99481.66
2022-08-31T19:49:52.935Z,99484.97
2022-08-31T19:52:20.160Z,99489.97
2022-08-31T19:54:48.478Z,99479.56
2022-08-31T19:57:16.765Z,99483.72
2022-08-31T19:59:43.434Z,99483.34
2022-08-31T20:02:10.207Z,99485.19
2022-08-31T20:04:36.872Z,99489.19
2022-08-31T20:07:06.415Z,99483.47
2022-08-31T20:09:34.322Z,99488.00
2022-08-31T20:12:02.022Z,99492.50
2022-08-31T20:14:28.969Z,99485.47
2022-08-31T20:16:55.516Z,99483.88
2022-08-31T20:19:24.900Z,99480.84
2022-08-31T20:21:54.195Z,99484.28
2022-08-31T20:24:26.718Z,99477.31
2022-08-31T20:26:55.527Z,99478.94
2022-08-31T20:29:23.769Z,99483.47
2022-08-31T20:34:20.123Z,99488.41
2022-08-31T20:36:50.048Z,99484.06
2022-08-31T20:39:18.445Z,99490.41
2022-08-31T20:41:48.323Z,99485.34
2022-08-31T20:44:21.417Z,99490.72
2022-08-31T20:47:12.514Z,99492.72
2022-08-31T20:49:42.234Z,99496.00
2022-08-31T20:52:11.649Z,99494.31
2022-08-31T20:54:38.136Z,99501.56
2022-08-31T20:57:09.097Z,99508.63
2022-08-31T20:59:36.265Z,99501.28
2022-08-31T21:02:06.112Z,99502.72
2022-08-31T21:04:37.328Z,99511.75
2022-08-31T21:07:05.890Z,99507.53
2022-08-31T21:09:32.689Z,99508.84
2022-08-31T21:11:59.988Z,99509.44
2022-08-31T21:14:28.237Z,99510.75
2022-08-31T21:16:55.987Z,99506.38
2022-08-31T21:19:23.828Z,99503.16
2022-08-31T21:21:52.321Z,99500.66
2022-08-31T21:24:20.466Z,99506.59
2022-08-31T21:26:47.871Z,99506.91
2022-08-31T21:29:17.939Z,99511.25
2022-08-31T21:31:58.270Z,99508.03
2022-08-31T21:34:29.403Z,99503.84
2022-08-31T21:36:55.956Z,99500.47
2022-08-31T21:39:23.154Z,99510.31
2022-08-31T21:41:50.510Z,99511.28
2022-08-31T21:44:20.855Z,99515.41
2022-08-31T21:46:50.742Z,99526.09
2022-08-31T21:49:18.715Z,99513.81
2022-08-31T21:51:52.203Z,99517.84
2022-08-31T21:54:21.723Z,99516.63
2022-08-31T21:56:53.445Z,99507.66
2022-08-31T21:59:22.747Z,99518.13
2022-08-31T22:01:55.496Z,99515.06
2022-08-31T22:04:23.591Z,99517.31
2022-08-31T22:06:50.122Z,99521.53
2022-08-31T22:09:19.159Z,99521.13
2022-08-31T22:11:50.698Z,99521.72
2022-08-31T22:14:20.026Z,99514.28
2022-08-31T22:16:48.492Z,99523.00
2022-08-31T22:19:20.899Z,99523.44
2022-08-31T22:21:51.129Z,99518.81
2022-08-31T22:24:27.806Z,99519.09
2022-08-31T22:26:56.643Z,99523.19
2022-08-31T22:29:26.152Z,99523.63
2022-08-31T22:31:54.207Z,99513.91
2022-08-31T22:34:21.466Z,99518.38
2022-08-31T22:36:50.832Z,99520.22
2022-08-31T22:39:19.848Z,99516.53
2022-08-31T22:41:47.316Z,99515.16
2022-08-31T22:44:18.062Z,99513.75
2022-08-31T22:46:45.346Z,99519.91
2022-08-31T22:54:23.761Z,99515.13
2022-08-31T22:56:51.009Z,99520.84
2022-08-31T22:59:27.103Z,99520.56
2022-08-31T23:01:57.375Z,99515.22
2022-08-31T23:04:26.375Z,99516.31
2022-08-31T23:06:55.370Z,99516.16
2022-08-31T23:09:27.130Z,99516.72
2022-08-31T23:11:55.506Z,99520.03
2022-08-31T23:14:22.737Z,99516.94
2022-08-31T23:16:55.207Z,99519.88
2022-08-31T23:19:26.278Z,99517.75
2022-08-31T23:21:56.952Z,99512.81
2022-08-31T23:24:35.412Z,99508.59
2022-08-31T23:27:05.077Z,99503.69
2022-08-31T23:29:42.513Z,99504.19
2022-08-31T23:32:13.183Z,99503.13
2022-08-31T23:34:41.966Z,99497.38
2022-08-31T23:37:10.272Z,99501.28
2022-08-31T23:39:39.548Z,99493.94
2022-08-31T23:42:07.414Z,99492.25
2022-08-31T23:44:36.186Z,99493.38
2022-08-31T23:47:02.965Z,99497.25
2022-08-31T23:49:29.696Z,99494.88
2022-08-31T23:51:56.231Z,99499.59
2022-08-31T23:54:23.313Z,99495.53
2022-08-31T23:56:52.257Z,99492.25
2022-08-31T23:59:19.863Z,99488.06
